createdAt,value
2018-04-19T00:00:16.130Z,21.40
2018-04-19T00:02:43.680Z,21.60
2018-04-19T00:05:11.972Z,20.63
2018-04-19T00:07:39.481Z,21.60
2018-04-19T00:10:07.267Z,22.33
2018-04-19T00:12:34.785Z,21.37
2018-04-19T00:15:02.309Z,21.07
2018-04-19T00:17:30.619Z,23.33
2018-04-19T00:19:58.269Z,22.47
2018-04-19T00:22:25.810Z,24.03
2018-04-19T00:24:53.338Z,22.37
2018-04-19T00:27:21.082Z,21.67
2018-04-19T00:29:48.652Z,21.33
2018-04-19T00:32:16.177Z,21.73
2018-04-19T00:34:43.849Z,22.40
2018-04-19T00:37:12.140Z,21.83
2018-04-19T00:39:39.656Z,23.47
2018-04-19T00:42:07.203Z,24.37
2018-04-19T00:44:34.752Z,25.57
2018-04-19T00:47:02.263Z,25.73
2018-04-19T00:49:29.904Z,25.93
2018-04-19T00:51:57.422Z,24.17
2018-04-19T00:54:24.941Z,26.13
2018-04-19T00:56:52.492Z,27.03
2018-04-19T00:59:20.026Z,27.90
2018-04-19T01:01:47.563Z,30.13
2018-04-19T01:04:15.892Z,30.57
2018-04-19T01:06:43.407Z,28.87
2018-04-19T01:09:11.688Z,28.47
2018-04-19T01:11:39.986Z,26.37
2018-04-19T01:14:07.511Z,26.20
2018-04-19T01:16:35.024Z,26.20
2018-04-19T01:19:02.661Z,25.17
2018-04-19T01:21:30.952Z,26.30
2018-04-19T01:23:59.225Z,27.90
2018-04-19T01:26:27.623Z,27.07
2018-04-19T01:28:55.144Z,27.07
2018-04-19T01:31:22.671Z,26.07
2018-04-19T01:33:50.226Z,28.30
2018-04-19T01:36:25.715Z,29.23
2018-04-19T01:38:53.384Z,26.67
2018-04-19T01:41:20.908Z,26.23
2018-04-19T01:43:48.428Z,29.77
2018-04-19T01:46:16.833Z,26.17
2018-04-19T01:48:44.349Z,25.87
2018-04-19T01:51:11.873Z,24.13
2018-04-19T01:53:39.417Z,22.80
2018-04-19T01:56:07.686Z,18.13
2018-04-19T01:58:36.149Z,20.47
2018-04-19T02:01:03.678Z,20.23
2018-04-19T02:03:31.198Z,19.27
2018-04-19T02:05:59.605Z,19.10
2018-04-19T02:08:27.140Z,19.73
2018-04-19T02:10:55.416Z,20.43
2018-04-19T02:13:23.045Z,21.00
2018-04-19T02:15:50.585Z,21.03
2018-04-19T02:18:18.094Z,21.67
2018-04-19T02:20:45.622Z,21.63
2018-04-19T02:23:13.140Z,21.20
2018-04-19T02:25:41.416Z,22.00
2018-04-19T02:28:09.726Z,21.80
2018-04-19T02:30:37.245Z,22.30
2018-04-19T02:33:04.769Z,23.53
2018-04-19T02:35:32.401Z,22.93
2018-04-19T02:38:00.670Z,23.20
2018-04-19T02:40:29.049Z,23.80
2018-04-19T02:42:56.559Z,23.20
2018-04-19T02:45:24.084Z,22.37
2018-04-19T02:47:52.583Z,23.17
2018-04-19T02:50:20.114Z,21.13
2018-04-19T02:52:47.624Z,23.70
2018-04-19T02:55:15.321Z,20.33
2018-04-19T02:57:42.828Z,23.03
2018-04-19T03:00:11.099Z,22.87
2018-04-19T03:02:39.516Z,22.50
2018-04-19T03:05:07.035Z,23.27
2018-04-19T03:07:34.547Z,24.17
2018-04-19T03:10:02.098Z,22.97
2018-04-19T03:12:29.623Z,23.00
2018-04-19T03:14:57.237Z,23.47
2018-04-19T03:17:24.885Z,21.80
2018-04-19T03:19:53.167Z,23.40
2018-04-19T03:22:20.688Z,21.10
2018-04-19T03:24:48.232Z,23.10
2018-04-19T03:27:15.752Z,22.20
2018-04-19T03:29:43.304Z,21.93
2018-04-19T03:32:11.722Z,22.83
2018-04-19T03:34:39.285Z,22.57
2018-04-19T03:37:06.813Z,21.00
2018-04-19T03:39:35.211Z,23.13
2018-04-19T03:42:03.495Z,20.83
2018-04-19T03:44:31.894Z,23.20
2018-04-19T03:46:59.406Z,22.47
2018-04-19T03:49:26.944Z,21.37
2018-04-19T03:51:54.669Z,23.87
2018-04-19T03:54:22.948Z,22.00
2018-04-19T03:56:51.231Z,22.13
2018-04-19T03:59:19.644Z,22.40
2018-04-19T04:01:47.142Z,21.97
2018-04-19T04:04:14.678Z,23.07
2018-04-19T04:06:42.227Z,23.10
2018-04-19T04:09:09.741Z,22.23
2018-04-19T04:11:37.268Z,23.67
2018-04-19T04:14:04.823Z,23.67
2018-04-19T04:16:44.292Z,23.13
2018-04-19T04:19:37.624Z,23.93
2018-04-19T04:22:17.056Z,24.80
2018-04-19T04:24:44.610Z,24.67
2018-04-19T04:27:12.128Z,25.27
2018-04-19T04:29:40.409Z,25.50
2018-04-19T04:32:08.796Z,25.47
2018-04-19T04:34:37.085Z,25.60
2018-04-19T04:37:04.602Z,26.87
2018-04-19T04:39:32.253Z,25.80
2018-04-19T04:41:59.796Z,26.53
2018-04-19T04:44:27.348Z,27.53
2018-04-19T04:46:55.034Z,26.23
2018-04-19T04:49:22.552Z,26.33
2018-04-19T04:51:50.089Z,28.37
2018-04-19T04:54:17.812Z,28.33
2018-04-19T04:56:45.348Z,28.27
2018-04-19T04:59:13.674Z,30.20
2018-04-19T05:01:41.229Z,30.63
2018-04-19T05:04:08.741Z,29.10
2018-04-19T05:06:36.249Z,27.00
2018-04-19T05:09:03.894Z,31.07
2018-04-19T05:11:32.184Z,29.83
2018-04-19T05:13:59.715Z,30.37
2018-04-19T05:16:27.272Z,32.13
2018-04-19T05:18:54.790Z,31.07
2018-04-19T05:21:22.299Z,29.83
2018-04-19T05:23:50.021Z,30.97
2018-04-19T05:26:17.560Z,28.87
2018-04-19T05:28:45.069Z,29.20
2018-04-19T05:31:12.733Z,30.17
2018-04-19T05:33:40.244Z,30.50
2018-04-19T05:36:08.561Z,30.03
2018-04-19T05:38:36.101Z,30.03
2018-04-19T05:41:04.432Z,31.43
2018-04-19T05:43:32.854Z,30.47
2018-04-19T05:46:00.368Z,31.93
2018-04-19T05:48:27.884Z,31.00
2018-04-19T05:50:56.208Z,31.67
2018-04-19T05:53:23.730Z,31.93
2018-04-19T05:55:52.021Z,31.13
2018-04-19T05:58:20.334Z,30.07
2018-04-19T06:00:47.846Z,32.07
2018-04-19T06:03:16.140Z,31.53
2018-04-19T06:05:44.447Z,32.30
2018-04-19T06:08:11.992Z,32.03
2018-04-19T06:10:40.275Z,32.33
2018-04-19T06:13:08.766Z,31.80
2018-04-19T06:15:37.156Z,32.23
2018-04-19T06:18:04.685Z,30.73
2018-04-19T06:20:32.219Z,32.73
2018-04-19T06:22:59.741Z,32.53
2018-04-19T06:25:27.275Z,35.00
2018-04-19T06:27:54.927Z,35.40
2018-04-19T06:30:22.510Z,32.87
2018-04-19T06:32:50.787Z,33.57
2018-04-19T06:35:18.334Z,32.33
2018-04-19T06:37:45.843Z,31.77
2018-04-19T06:40:13.369Z,32.63
2018-04-19T06:42:41.032Z,31.77
2018-04-19T06:45:08.547Z,32.47
2018-04-19T06:47:36.061Z,32.37
2018-04-19T06:50:03.713Z,32.40
2018-04-19T06:52:31.244Z,32.63
2018-04-19T06:54:58.772Z,32.73
2018-04-19T06:57:27.188Z,32.47
2018-04-19T06:59:54.717Z,31.87
2018-04-19T07:02:23.003Z,32.57
2018-04-19T07:04:51.415Z,29.27
2018-04-19T07:07:18.933Z,30.00
2018-04-19T07:09:46.474Z,29.47
2018-04-19T07:12:14.044Z,27.13
2018-04-19T07:14:41.641Z,27.87
2018-04-19T07:17:09.139Z,27.83
2018-04-19T07:19:36.679Z,27.97
2018-04-19T07:22:04.219Z,29.47
2018-04-19T07:24:32.511Z,28.00
2018-04-19T07:27:01.016Z,29.27
2018-04-19T07:29:28.532Z,28.47
2018-04-19T07:31:56.043Z,29.03
2018-04-19T07:34:23.684Z,30.20
2018-04-19T07:36:51.968Z,30.77
2018-04-19T07:39:20.238Z,30.73
2018-04-19T07:41:47.876Z,30.23
2018-04-19T07:44:16.151Z,30.13
2018-04-19T07:46:43.678Z,30.20
2018-04-19T07:49:11.316Z,30.13
2018-04-19T07:51:39.602Z,29.17
2018-04-19T07:54:08.013Z,27.37
2018-04-19T07:56:35.558Z,26.00
2018-04-19T07:59:03.849Z,26.20
2018-04-19T08:01:31.413Z,25.20
2018-04-19T08:03:58.936Z,23.23
2018-04-19T08:06:26.469Z,21.63
2018-04-19T08:08:54.022Z,22.20
2018-04-19T08:11:21.622Z,21.20
2018-04-19T08:13:49.120Z,20.27
2018-04-19T08:16:16.819Z,19.73
2018-04-19T08:18:44.368Z,19.40
2018-04-19T08:21:11.979Z,19.40
2018-04-19T08:23:39.550Z,19.60
2018-04-19T08:26:07.111Z,19.63
2018-04-19T08:28:34.864Z,17.57
2018-04-19T08:31:02.569Z,16.97
2018-04-19T08:33:30.923Z,18.33
2018-04-19T08:35:58.665Z,17.47
2018-04-19T08:38:26.335Z,17.67
2018-04-19T08:40:53.890Z,16.80
2018-04-19T08:43:21.489Z,17.00
2018-04-19T08:45:49.086Z,15.93
2018-04-19T08:48:16.675Z,15.60
2018-04-19T08:50:44.207Z,14.93
2018-04-19T08:53:12.540Z,16.47
2018-04-19T08:55:40.081Z,16.53
2018-04-19T08:58:07.625Z,16.33
2018-04-19T09:00:35.313Z,16.57
2018-04-19T09:03:02.889Z,16.73
2018-04-19T09:05:30.435Z,15.30
2018-04-19T09:07:58.238Z,16.17
2018-04-19T09:10:25.764Z,15.67
2018-04-19T09:12:53.303Z,15.77
2018-04-19T09:15:21.695Z,16.23
2018-04-19T09:17:49.975Z,16.00
2018-04-19T09:20:18.267Z,14.53
2018-04-19T09:22:46.052Z,14.70
2018-04-19T09:25:13.576Z,13.67
2018-04-19T09:27:41.860Z,12.00
2018-04-19T09:30:10.341Z,11.50
2018-04-19T09:32:37.866Z,10.63
2018-04-19T09:35:05.406Z,9.83
2018-04-19T09:37:33.021Z,11.03
2018-04-19T09:40:00.539Z,10.40
2018-04-19T09:42:28.064Z,9.53
2018-04-19T09:44:56.465Z,9.40
2018-04-19T09:47:23.986Z,9.63
2018-04-19T09:49:51.492Z,9.50
2018-04-19T09:52:19.108Z,9.30
2018-04-19T09:54:46.627Z,7.70
2018-04-19T09:57:14.151Z,7.63
2018-04-19T09:59:41.787Z,7.57
2018-04-19T10:02:09.293Z,9.03
2018-04-19T10:04:37.571Z,7.90
2018-04-19T10:07:05.971Z,7.37
2018-04-19T10:09:34.242Z,7.63
2018-04-19T10:12:02.517Z,8.10
2018-04-19T10:14:30.816Z,7.57
2018-04-19T10:16:58.331Z,7.60
2018-04-19T10:19:25.857Z,7.83
2018-04-19T10:21:53.491Z,8.00
2018-04-19T10:24:21.789Z,6.80
2018-04-19T10:26:49.318Z,6.67
2018-04-19T10:29:16.907Z,7.00
2018-04-19T10:31:45.192Z,7.13
2018-04-19T10:34:13.459Z,6.73
2018-04-19T10:36:41.842Z,6.23
2018-04-19T10:39:10.123Z,6.30
2018-04-19T10:41:38.398Z,5.73
2018-04-19T10:44:06.795Z,6.17
2018-04-19T10:46:35.084Z,6.53
2018-04-19T10:49:03.361Z,6.00
2018-04-19T10:51:31.760Z,5.70
2018-04-19T10:53:59.287Z,5.37
2018-04-19T10:56:26.789Z,4.57
2018-04-19T10:58:54.559Z,5.33
2018-04-19T11:01:22.075Z,4.70
2018-04-19T11:03:49.630Z,4.70
2018-04-19T11:06:17.197Z,3.90
2018-04-19T11:08:44.784Z,4.43
2018-04-19T11:11:13.096Z,3.87
2018-04-19T11:13:40.759Z,7.07
2018-04-19T11:16:08.282Z,4.03
2018-04-19T11:18:35.824Z,4.50
2018-04-19T11:21:03.372Z,3.53
2018-04-19T11:23:30.900Z,4.00
2018-04-19T11:25:58.418Z,4.07
2018-04-19T11:28:26.136Z,3.30
2018-04-19T11:30:53.674Z,3.70
2018-04-19T11:33:21.965Z,3.27
2018-04-19T11:35:49.751Z,3.03
2018-04-19T11:38:17.303Z,2.90
2018-04-19T11:40:44.817Z,3.10
2018-04-19T11:43:12.544Z,3.20
2018-04-19T11:45:40.064Z,3.50
2018-04-19T11:48:07.575Z,3.13
2018-04-19T11:50:35.129Z,2.90
2018-04-19T11:53:02.695Z,3.00
2018-04-19T11:55:30.225Z,3.03
2018-04-19T11:57:57.888Z,3.47
2018-04-19T12:00:25.391Z,3.70
2018-04-19T12:02:52.918Z,3.50
2018-04-19T12:05:20.582Z,3.50
2018-04-19T12:07:48.104Z,2.70
2018-04-19T12:10:15.620Z,3.43
2018-04-19T12:12:43.171Z,3.30
2018-04-19T12:15:10.700Z,3.43
2018-04-19T12:17:38.224Z,3.10
2018-04-19T12:20:06.654Z,2.80
2018-04-19T12:22:34.231Z,3.57
2018-04-19T12:25:02.513Z,3.73
2018-04-19T12:27:30.210Z,3.83
2018-04-19T12:29:58.490Z,3.67
2018-04-19T12:32:26.835Z,3.87
2018-04-19T12:34:54.400Z,3.53
2018-04-19T12:37:21.922Z,3.53
2018-04-19T12:39:49.462Z,3.90
2018-04-19T12:42:17.741Z,3.10
2018-04-19T12:44:46.044Z,3.57
2018-04-19T12:47:13.593Z,4.37
2018-04-19T12:49:41.915Z,3.80
2018-04-19T12:52:09.532Z,3.80
2018-04-19T12:54:37.838Z,3.80
2018-04-19T12:57:05.406Z,3.50
2018-04-19T12:59:32.947Z,3.80
2018-04-19T13:02:01.225Z,3.80
2018-04-19T13:04:29.582Z,4.03
2018-04-19T13:06:57.224Z,3.63
2018-04-19T13:09:24.746Z,3.70
2018-04-19T13:11:53.150Z,4.00
2018-04-19T13:14:20.680Z,3.30
2018-04-19T13:16:48.974Z,3.17
2018-04-19T13:19:17.258Z,2.70
2018-04-19T13:21:44.935Z,3.80
2018-04-19T13:24:12.467Z,3.20
2018-04-19T13:26:40.748Z,3.97
2018-04-19T13:29:08.550Z,3.50
2018-04-19T13:31:36.113Z,3.33
2018-04-19T13:34:03.684Z,2.33
2018-04-19T13:36:31.331Z,2.63
2018-04-19T13:38:58.846Z,2.67
2018-04-19T13:41:26.370Z,2.53
2018-04-19T13:43:54.043Z,2.83
2018-04-19T13:46:21.573Z,3.07
2018-04-19T13:48:49.864Z,3.20
2018-04-19T13:51:18.217Z,2.80
2018-04-19T13:53:45.725Z,3.47
2018-04-19T13:56:13.241Z,3.43
2018-04-19T13:58:40.801Z,2.77
2018-04-19T14:01:08.409Z,3.40
2018-04-19T14:03:35.938Z,3.07
2018-04-19T14:06:03.664Z,2.90
2018-04-19T14:08:31.189Z,2.70
2018-04-19T14:10:59.462Z,2.57
2018-04-19T14:13:27.790Z,2.20
2018-04-19T14:15:55.368Z,2.47
2018-04-19T14:18:22.920Z,2.40
2018-04-19T14:20:50.623Z,2.63
2018-04-19T14:23:18.171Z,2.10
2018-04-19T14:25:45.769Z,2.30
2018-04-19T14:28:14.218Z,2.00
2018-04-19T14:30:41.743Z,2.70
2018-04-19T14:33:09.363Z,2.70
2018-04-19T14:35:37.069Z,2.93
2018-04-19T14:38:04.616Z,2.60
2018-04-19T14:40:32.954Z,3.37
2018-04-19T14:43:00.682Z,2.43
2018-04-19T14:45:28.211Z,2.70
2018-04-19T14:47:55.736Z,2.17
2018-04-19T14:50:23.530Z,2.60
2018-04-19T14:52:51.067Z,2.13
2018-04-19T14:55:18.620Z,2.33
2018-04-19T14:57:46.355Z,2.90
2018-04-19T15:00:13.897Z,2.80
2018-04-19T15:02:41.416Z,2.30
2018-04-19T15:05:09.135Z,2.70
2018-04-19T15:07:36.682Z,2.60
2018-04-19T15:10:04.211Z,2.30
2018-04-19T15:12:31.948Z,2.40
2018-04-19T15:15:00.313Z,2.70
2018-04-19T15:17:27.892Z,2.23
2018-04-19T15:19:56.244Z,2.50
2018-04-19T15:22:23.744Z,2.40
2018-04-19T15:24:52.038Z,2.57
2018-04-19T15:27:19.683Z,2.60
2018-04-19T15:29:48.031Z,2.50
2018-04-19T15:32:15.557Z,2.00
2018-04-19T15:34:43.107Z,2.23
2018-04-19T15:37:10.750Z,2.27
2018-04-19T15:39:38.592Z,2.50
2018-04-19T15:42:06.244Z,2.40
2018-04-19T15:44:33.781Z,2.13
2018-04-19T15:47:01.311Z,2.40
2018-04-19T15:49:29.206Z,2.70
2018-04-19T15:51:56.740Z,2.20
2018-04-19T15:54:24.296Z,1.87
2018-04-19T15:56:51.858Z,1.93
2018-04-19T15:59:19.368Z,2.27
2018-04-19T16:01:46.889Z,2.30
2018-04-19T16:04:14.531Z,2.20
2018-04-19T16:06:42.163Z,2.13
2018-04-19T16:09:09.689Z,2.10
2018-04-19T16:11:37.458Z,2.10
2018-04-19T16:14:05.023Z,2.60
2018-04-19T16:16:32.560Z,2.10
2018-04-19T16:19:00.336Z,2.47
2018-04-19T16:21:27.956Z,2.37
2018-04-19T16:23:55.570Z,2.03
2018-04-19T16:26:23.230Z,2.57
2018-04-19T16:28:50.748Z,2.77
2018-04-19T16:31:18.259Z,2.57
2018-04-19T16:33:45.904Z,2.90
2018-04-19T16:36:13.434Z,3.73
2018-04-19T16:38:41.727Z,3.90
2018-04-19T16:41:10.151Z,4.03
2018-04-19T16:43:37.682Z,2.73
2018-04-19T16:46:05.208Z,2.40
2018-04-19T16:48:33.605Z,2.10
2018-04-19T16:51:01.908Z,2.10
2018-04-19T16:53:29.453Z,2.60
2018-04-19T16:55:57.013Z,2.47
2018-04-19T16:58:25.316Z,2.47
2018-04-19T17:00:52.866Z,2.30
2018-04-19T17:03:20.408Z,2.40
2018-04-19T17:05:48.752Z,2.40
2018-04-19T17:08:16.273Z,2.73
2018-04-19T17:10:43.943Z,2.93
2018-04-19T17:13:11.472Z,2.93
2018-04-19T17:15:39.041Z,4.73
2018-04-19T17:18:06.733Z,4.57
2018-04-19T17:20:34.270Z,3.63
2018-04-19T17:23:01.795Z,2.90
2018-04-19T17:25:29.421Z,3.40
2018-04-19T17:27:57.775Z,2.90
2018-04-19T17:30:25.326Z,3.33
2018-04-19T17:32:53.246Z,3.03
2018-04-19T17:35:20.777Z,3.07
2018-04-19T17:37:48.336Z,3.70
2018-04-19T17:40:16.165Z,3.13
2018-04-19T17:42:43.806Z,3.70
2018-04-19T17:45:12.158Z,3.73
2018-04-19T17:47:39.762Z,3.83
2018-04-19T17:50:07.322Z,3.87
2018-04-19T17:52:34.855Z,4.27
2018-04-19T17:55:02.466Z,4.33
2018-04-19T17:57:30.020Z,4.40
2018-04-19T17:59:57.596Z,4.73
2018-04-19T18:02:25.266Z,3.37
2018-04-19T18:04:52.819Z,3.40
2018-04-19T18:07:20.354Z,2.77
2018-04-19T18:09:48.780Z,2.90
2018-04-19T18:12:16.303Z,3.50
2018-04-19T18:14:44.638Z,3.10
2018-04-19T18:17:12.283Z,2.40
2018-04-19T18:19:39.845Z,2.27
2018-04-19T18:22:07.365Z,2.60
2018-04-19T18:24:35.824Z,3.00
2018-04-19T18:27:03.352Z,2.47
2018-04-19T18:29:30.885Z,3.10
2018-04-19T18:31:59.294Z,2.97
2018-04-19T18:34:27.083Z,2.70
2018-04-19T18:36:54.629Z,3.10
2018-04-19T18:39:22.257Z,3.23
2018-04-19T18:41:49.800Z,3.20
2018-04-19T18:44:17.338Z,3.30
2018-04-19T18:46:45.005Z,3.33
2018-04-19T18:49:12.578Z,3.40
2018-04-19T18:51:40.089Z,5.50
2018-04-19T18:54:08.708Z,5.03
2018-04-19T18:56:36.281Z,3.90
2018-04-19T18:59:03.826Z,3.70
2018-04-19T19:01:31.588Z,3.70
2018-04-19T19:03:59.128Z,3.50
2018-04-19T19:06:26.656Z,3.27
2018-04-19T19:08:54.335Z,3.40
2018-04-19T19:11:21.883Z,3.23
2018-04-19T19:13:49.421Z,3.40
2018-04-19T19:16:17.327Z,3.67
2018-04-19T19:18:56.788Z,3.87
2018-04-19T19:21:25.164Z,3.83
2018-04-19T19:23:52.762Z,3.70
2018-04-19T19:26:20.274Z,3.93
2018-04-19T19:28:47.825Z,4.30
2018-04-19T19:31:15.374Z,4.43
2018-04-19T19:33:42.891Z,4.10
2018-04-19T19:36:10.594Z,4.27
2018-04-19T19:38:38.204Z,4.23
2018-04-19T19:41:05.732Z,4.07
2018-04-19T19:43:33.310Z,4.33
2018-04-19T19:46:00.861Z,5.23
2018-04-19T19:48:28.457Z,5.07
2018-04-19T19:50:56.133Z,4.97
2018-04-19T19:53:23.660Z,4.90
2018-04-19T19:55:51.209Z,5.73
2018-04-19T19:58:18.851Z,4.80
2018-04-19T20:00:47.323Z,4.93
2018-04-19T20:03:15.779Z,5.03
2018-04-19T20:05:43.479Z,5.23
2018-04-19T20:08:11.082Z,5.83
2018-04-19T20:10:38.607Z,5.30
2018-04-19T20:13:06.134Z,5.03
2018-04-19T20:15:33.733Z,5.23
2018-04-19T20:18:01.300Z,4.80
2018-04-19T20:20:29.690Z,5.30
2018-04-19T20:22:57.278Z,5.27
2018-04-19T20:25:25.103Z,4.83
2018-04-19T20:27:52.708Z,4.87
2018-04-19T20:30:20.327Z,5.37
2018-04-19T20:32:48.032Z,5.33
2018-04-19T20:35:15.615Z,5.30
2018-04-19T20:37:43.520Z,5.70
2018-04-19T20:40:11.244Z,5.53
2018-04-19T20:42:39.569Z,5.73
2018-04-19T20:45:07.303Z,6.03
2018-04-19T20:47:35.063Z,6.10
2018-04-19T20:50:02.622Z,5.10
2018-04-19T20:52:31.038Z,5.97
2018-04-19T20:54:58.672Z,5.93
2018-04-19T20:57:27.025Z,6.43
2018-04-19T20:59:54.954Z,6.17
2018-04-19T21:02:22.846Z,6.33
2018-04-19T21:04:50.570Z,6.27
2018-04-19T21:07:18.867Z,6.47
2018-04-19T21:09:47.109Z,6.10
2018-04-19T21:12:15.577Z,5.47
2018-04-19T21:14:43.142Z,6.30
2018-04-19T21:17:10.781Z,6.43
2018-04-19T21:19:38.373Z,6.50
2018-04-19T21:22:05.897Z,6.03
2018-04-19T21:24:33.561Z,6.10
2018-04-19T21:27:01.125Z,6.30
2018-04-19T21:29:28.658Z,5.73
2018-04-19T21:31:57.073Z,6.00
2018-04-19T21:34:24.611Z,6.30
2018-04-19T21:36:52.261Z,6.23
2018-04-19T21:39:20.559Z,6.40
2018-04-19T21:41:48.074Z,6.13
2018-04-19T21:44:15.588Z,6.77
2018-04-19T21:46:43.119Z,7.10
2018-04-19T21:49:10.636Z,7.00
2018-04-19T21:51:38.189Z,7.17
2018-04-19T21:54:05.835Z,7.13
2018-04-19T21:56:34.129Z,6.73
2018-04-19T21:59:01.686Z,7.50
2018-04-19T22:01:29.348Z,7.37
2018-04-19T22:03:57.666Z,6.33
2018-04-19T22:06:25.233Z,6.37
2018-04-19T22:08:53.720Z,6.70
2018-04-19T22:11:21.214Z,6.83
2018-04-19T22:13:48.833Z,5.83
2018-04-19T22:16:16.382Z,6.07
2018-04-19T22:18:43.921Z,5.73
2018-04-19T22:21:12.240Z,4.70
2018-04-19T22:23:39.889Z,5.20
2018-04-19T22:26:07.413Z,6.20
2018-04-19T22:28:34.951Z,5.70
2018-04-19T22:31:02.621Z,6.40
2018-04-19T22:33:30.144Z,5.97
2018-04-19T22:35:57.657Z,6.43
2018-04-19T22:38:25.212Z,6.30
2018-04-19T22:40:52.738Z,6.20
2018-04-19T22:43:20.259Z,6.60
2018-04-19T22:45:47.891Z,5.80
2018-04-19T22:48:15.416Z,6.50
2018-04-19T22:50:43.709Z,5.80
2018-04-19T22:53:11.362Z,5.57
2018-04-19T22:55:39.673Z,6.00
2018-04-19T22:58:07.186Z,5.80
2018-04-19T23:00:34.860Z,6.50
2018-04-19T23:03:02.375Z,5.70
2018-04-19T23:05:29.941Z,6.50
2018-04-19T23:07:57.590Z,6.10
2018-04-19T23:10:25.106Z,6.03
2018-04-19T23:12:52.623Z,6.03
2018-04-19T23:15:20.267Z,5.70
2018-04-19T23:17:47.815Z,5.17
2018-04-19T23:20:16.152Z,6.20
2018-04-19T23:22:43.804Z,6.03
2018-04-19T23:25:11.336Z,5.63
2018-04-19T23:27:39.708Z,6.10
2018-04-19T23:30:08.028Z,5.77
2018-04-19T23:32:35.607Z,6.73
2018-04-19T23:35:03.132Z,6.17
2018-04-19T23:37:31.599Z,5.97
2018-04-19T23:39:59.089Z,5.93
2018-04-19T23:42:26.606Z,6.27
2018-04-19T23:44:54.198Z,6.17
2018-04-19T23:47:22.515Z,5.63
2018-04-19T23:49:50.046Z,6.10
2018-04-19T23:52:17.597Z,6.23
2018-04-19T23:54:45.996Z,5.43
2018-04-19T23:57:13.547Z,5.40
2018-04-19T23:59:41.871Z,5.17
